Time;durP1;ratioP1;P1;durP2;ratioP2;P2;SDS_P1;SDS_P2;PMS_P1;PMS_P2;Temp;Humidity;BMP_temperature;BMP_pressure;BME280_temperature;BME280_humidity;BME280_pressure;Samples;Min_cycle;Max_cycle;Signal;HPM_P1;HPM_P2
2021/12/25 00:00:55;;;;;;;11.43;8.68;;;4.80;96.50;;;;;;2088263;28;20037;-91
2021/12/25 00:01:56;;;;;;;11.45;8.55;;;4.70;96.50;;;;;;2084137;28;20491;-91
2021/12/25 00:02:57;;;;;;;10.82;8.25;;;4.80;96.50;;;;;;2087803;28;20033;-91
2021/12/25 00:03:57;;;;;;;10.73;8.23;;;4.80;96.50;;;;;;2085322;28;20064;-90
2021/12/25 00:04:58;;;;;;;11.00;8.38;;;4.80;96.50;;;;;;2086095;28;20041;-91
2021/12/25 00:05:59;;;;;;;11.20;8.50;;;4.80;96.50;;;;;;2090233;28;20136;-90
2021/12/25 00:06:59;;;;;;;11.57;9.00;;;4.80;96.50;;;;;;2083216;28;20030;-90
2021/12/25 00:08:00;;;;;;;10.05;7.95;;;4.80;96.50;;;;;;2084151;28;20042;-90
2021/12/25 00:09:02;;;;;;;10.23;8.18;;;4.80;96.50;;;;;;2092392;28;20037;-90
2021/12/25 00:10:05;;;;;;;11.63;8.75;;;4.80;96.50;;;;;;2103716;28;20034;-90
2021/12/25 00:11:08;;;;;;;10.75;8.50;;;4.80;96.50;;;;;;2092404;28;20029;-86
2021/12/25 00:12:09;;;;;;;11.02;8.18;;;4.70;96.40;;;;;;2091132;28;20447;-90
2021/12/25 00:13:10;;;;;;;11.07;8.65;;;4.70;96.70;;;;;;2105486;28;21913;-89
2021/12/25 00:14:12;;;;;;;12.20;9.18;;;4.70;96.40;;;;;;2102055;28;20555;-89
2021/12/25 00:15:12;;;;;;;11.57;8.88;;;4.70;96.40;;;;;;2092616;28;20033;-91
2021/12/25 00:16:13;;;;;;;11.40;8.98;;;4.70;96.40;;;;;;2091289;28;20156;-90
2021/12/25 00:17:14;;;;;;;12.23;9.02;;;4.70;96.40;;;;;;2086556;28;20453;-91
2021/12/25 00:18:15;;;;;;;11.90;9.40;;;4.70;96.40;;;;;;2066192;28;20045;-90
2021/12/25 00:19:15;;;;;;;10.82;8.23;;;4.70;96.40;;;;;;2088750;28;20517;-90
2021/12/25 00:20:16;;;;;;;12.57;9.68;;;4.70;96.40;;;;;;2098184;28;20131;-91
2021/12/25 00:21:17;;;;;;;13.23;9.75;;;4.60;96.40;;;;;;2098036;28;20044;-90
2021/12/25 00:22:17;;;;;;;11.77;9.15;;;4.60;96.40;;;;;;2097865;28;20041;-91
2021/12/25 00:23:18;;;;;;;11.93;8.75;;;4.60;96.40;;;;;;2089580;28;20044;-90
2021/12/25 00:24:19;;;;;;;11.85;8.85;;;4.60;96.40;;;;;;2089205;28;20133;-91
2021/12/25 00:25:21;;;;;;;13.55;9.57;;;4.60;96.40;;;;;;2073176;28;20038;-91
2021/12/25 00:27:20;;;;;;;12.15;9.38;;;4.60;96.40;;;;;;2081365;28;20045;-91
2021/12/25 00:28:20;;;;;;;13.40;9.38;;;4.60;96.40;;;;;;2084515;28;20041;-91
2021/12/25 00:30:42;;;;;;;11.52;8.48;;;4.50;96.40;;;;;;2090243;28;20040;-90
2021/12/25 00:31:46;;;;;;;11.75;8.70;;;4.50;96.40;;;;;;2090530;28;20400;-91
2021/12/25 00:32:58;;;;;;;12.18;8.65;;;4.50;96.40;;;;;;2083818;28;20128;-91
2021/12/25 00:34:01;;;;;;;12.32;9.05;;;4.50;96.40;;;;;;2083310;28;20420;-91
2021/12/25 00:35:02;;;;;;;11.10;7.90;;;4.50;96.40;;;;;;2089293;28;20120;-91
2021/12/25 00:36:04;;;;;;;11.90;8.90;;;4.50;96.40;;;;;;2090158;28;20040;-91
2021/12/25 00:37:06;;;;;;;12.48;8.50;;;4.50;96.40;;;;;;2081695;28;20520;-91
2021/12/25 00:38:06;;;;;;;12.75;8.77;;;4.50;96.40;;;;;;2089414;28;20503;-91
2021/12/25 00:39:07;;;;;;;12.05;9.02;;;4.50;96.40;;;;;;2080774;28;20045;-91
2021/12/25 00:40:09;;;;;;;11.63;8.38;;;4.50;96.40;;;;;;2074163;28;20073;-91
2021/12/25 00:41:11;;;;;;;12.32;8.88;;;4.40;96.30;;;;;;2097756;28;20040;-91
2021/12/25 00:42:12;;;;;;;10.80;7.85;;;4.40;96.30;;;;;;2112436;28;20027;-91
2021/12/25 00:43:13;;;;;;;11.63;8.32;;;4.40;96.40;;;;;;2098360;28;20090;-90
2021/12/25 00:44:13;;;;;;;11.95;8.63;;;4.40;96.40;;;;;;2098506;28;20197;-91
2021/12/25 00:45:14;;;;;;;11.40;8.27;;;4.40;96.40;;;;;;2077582;28;20385;-91
2021/12/25 00:46:15;;;;;;;10.98;8.32;;;4.40;96.70;;;;;;2088985;28;20121;-91
2021/12/25 00:47:16;;;;;;;11.02;7.75;;;4.40;96.40;;;;;;2097072;28;20538;-90
2021/12/25 00:48:17;;;;;;;10.82;8.30;;;4.40;96.40;;;;;;2074784;28;20038;-92
2021/12/25 00:49:18;;;;;;;10.52;7.82;;;4.40;96.40;;;;;;2074877;28;20041;-90
2021/12/25 00:50:19;;;;;;;10.32;7.60;;;4.40;96.40;;;;;;2090003;28;20053;-91
2021/12/25 00:51:19;;;;;;;9.93;7.50;;;4.40;96.40;;;;;;2074754;28;20427;-90
2021/12/25 00:52:20;;;;;;;10.45;7.70;;;4.40;96.40;;;;;;2074313;28;20037;-90
2021/12/25 00:53:21;;;;;;;9.75;6.90;;;4.40;96.50;;;;;;2091285;28;20230;-91
2021/12/25 00:54:22;;;;;;;9.77;7.10;;;4.40;96.40;;;;;;2097488;28;20029;-91
2021/12/25 00:55:23;;;;;;;9.57;6.95;;;4.40;96.50;;;;;;2107201;28;20024;-91
2021/12/25 00:56:23;;;;;;;9.73;7.63;;;4.40;96.40;;;;;;2099589;28;20051;-92
2021/12/25 00:57:24;;;;;;;9.23;6.82;;;4.40;96.60;;;;;;2090865;28;20040;-91
2021/12/25 00:58:25;;;;;;;10.10;7.50;;;4.40;96.30;;;;;;2082910;28;20080;-91
2021/12/25 00:59:25;;;;;;;9.88;7.40;;;4.40;96.30;;;;;;2075395;28;20050;-91
2021/12/25 01:00:26;;;;;;;10.18;7.00;;;4.30;96.50;;;;;;2084412;28;20130;-91
2021/12/25 01:01:27;;;;;;;9.40;7.20;;;4.30;96.30;;;;;;2092015;28;20220;-91
2021/12/25 01:02:28;;;;;;;9.88;7.20;;;4.30;96.40;;;;;;2106786;28;20040;-91
2021/12/25 01:03:28;;;;;;;9.95;7.28;;;4.20;96.40;;;;;;2091184;28;20053;-91
2021/12/25 01:04:29;;;;;;;9.55;6.80;;;4.20;96.40;;;;;;2082659;28;20124;-90
2021/12/25 01:05:29;;;;;;;9.10;7.00;;;4.20;96.40;;;;;;2088521;28;20041;-91
2021/12/25 01:06:30;;;;;;;9.15;7.22;;;4.20;96.40;;;;;;2099677;28;20028;-92
2021/12/25 01:07:31;;;;;;;9.02;6.85;;;4.20;96.40;;;;;;2083580;28;20132;-91
2021/12/25 01:08:32;;;;;;;9.15;6.88;;;4.10;96.40;;;;;;2097449;28;20029;-91
2021/12/25 01:09:33;;;;;;;9.32;7.05;;;4.10;96.40;;;;;;2100597;28;20515;-91
2021/12/25 01:10:34;;;;;;;9.77;7.07;;;4.00;96.40;;;;;;2084250;28;20033;-91
2021/12/25 01:11:36;;;;;;;9.73;7.07;;;4.00;96.50;;;;;;2095918;28;20044;-90
2021/12/25 01:13:14;;;;;;;8.55;6.70;;;4.00;96.50;;;;;;2091585;28;20039;-91
2021/12/25 01:14:13;;;;;;;10.45;6.93;;;4.00;96.50;;;;;;2081171;28;20033;-90
2021/12/25 01:15:16;;;;;;;;;;;4.00;96.60;;;;;;2085428;28;20029;-89
2021/12/25 01:38:04;;;;;;;13.05;9.50;;;3.50;96.60;;;;;;2098752;28;20040;-90
2021/12/25 01:39:26;;;;;;;12.48;8.95;;;3.50;96.80;;;;;;2100713;28;20043;-90
2021/12/25 01:42:04;;;;;;;12.80;8.57;;;3.50;96.60;;;;;;2096325;28;20032;-91
2021/12/25 01:48:25;;;;;;;13.93;10.10;;;3.40;96.60;;;;;;2097848;28;20509;-91
2021/12/25 01:49:26;;;;;;;15.38;11.35;;;3.40;96.60;;;;;;2093590;28;20453;-91
2021/12/25 01:50:28;;;;;;;14.32;10.68;;;3.40;96.50;;;;;;2088879;28;20094;-91
2021/12/25 01:51:29;;;;;;;14.60;10.90;;;3.40;96.50;;;;;;2074940;28;20038;-91
2021/12/25 01:52:30;;;;;;;16.48;11.98;;;3.30;96.50;;;;;;2090976;28;20037;-91
2021/12/25 01:53:31;;;;;;;15.60;11.93;;;3.30;96.50;;;;;;2091118;28;20415;-90
2021/12/25 01:54:33;;;;;;;16.90;12.68;;;3.30;96.50;;;;;;2076154;28;20044;-90
2021/12/25 01:55:34;;;;;;;16.55;12.38;;;3.30;96.50;;;;;;2082712;28;20040;-91
2021/12/25 01:56:34;;;;;;;15.70;11.90;;;3.30;96.50;;;;;;2082869;28;20099;-91
2021/12/25 01:57:35;;;;;;;19.70;13.85;;;3.20;96.50;;;;;;2073498;28;20146;-91
2021/12/25 01:58:36;;;;;;;17.48;13.63;;;3.20;96.50;;;;;;2082879;28;20037;-91
2021/12/25 01:59:37;;;;;;;19.40;14.15;;;3.20;96.50;;;;;;2090302;28;20072;-91
2021/12/25 02:00:40;;;;;;;16.52;13.05;;;3.20;96.50;;;;;;2090693;28;20404;-91
2021/12/25 02:01:41;;;;;;;18.10;13.38;;;3.10;96.70;;;;;;2084702;28;20029;-91
2021/12/25 02:02:42;;;;;;;17.02;13.52;;;3.10;96.50;;;;;;2082630;28;20518;-91
2021/12/25 02:03:43;;;;;;;17.67;13.40;;;3.10;96.50;;;;;;2082440;28;20052;-91
2021/12/25 02:04:44;;;;;;;18.60;13.60;;;3.10;96.50;;;;;;2091885;28;20072;-90
2021/12/25 02:05:45;;;;;;;18.20;13.90;;;3.10;96.50;;;;;;2075794;28;20037;-91
2021/12/25 02:06:46;;;;;;;20.67;14.75;;;3.10;96.60;;;;;;2081776;28;20034;-91
2021/12/25 02:07:47;;;;;;;19.13;14.35;;;3.10;96.50;;;;;;2089631;28;20352;-91
2021/12/25 02:08:48;;;;;;;22.30;15.75;;;3.10;96.50;;;;;;2089292;28;20041;-91
2021/12/25 02:09:48;;;;;;;20.48;15.15;;;3.10;96.50;;;;;;2090650;28;20029;-91
2021/12/25 02:10:50;;;;;;;20.80;15.40;;;3.10;96.50;;;;;;2082554;28;20033;-91
2021/12/25 02:11:51;;;;;;;21.15;15.15;;;3.00;96.40;;;;;;2082472;28;20092;-91
2021/12/25 02:12:52;;;;;;;21.70;15.82;;;3.00;96.50;;;;;;2096836;28;20032;-92
2021/12/25 02:13:53;;;;;;;21.20;14.90;;;3.00;96.50;;;;;;2097012;28;20040;-91
2021/12/25 02:14:54;;;;;;;21.05;15.90;;;3.00;96.80;;;;;;2080161;28;20373;-92
2021/12/25 02:15:57;;;;;;;20.35;15.55;;;3.00;96.80;;;;;;2066350;28;20035;-91
2021/12/25 02:17:07;;;;;;;22.75;16.27;;;3.00;96.50;;;;;;2081234;28;20053;-91
2021/12/25 02:18:22;;;;;;;20.65;14.85;;;3.00;96.50;;;;;;2091584;28;20411;-91
2021/12/25 02:19:42;;;;;;;23.35;16.50;;;3.00;96.50;;;;;;2099235;28;20112;-92
2021/12/25 02:21:07;;;;;;;23.63;16.38;;;3.00;96.50;;;;;;2088547;28;20057;-92
2021/12/25 02:22:09;;;;;;;23.35;16.58;;;2.90;96.40;;;;;;2096423;28;20063;-92
2021/12/25 02:23:16;;;;;;;25.95;17.88;;;2.90;96.40;;;;;;2090052;28;20037;-91
2021/12/25 02:24:17;;;;;;;23.65;17.23;;;2.90;96.40;;;;;;2083812;28;20034;-92
2021/12/25 02:25:18;;;;;;;25.15;18.08;;;2.90;96.30;;;;;;2083998;28;20069;-91
2021/12/25 02:26:20;;;;;;;23.83;18.08;;;2.90;96.30;;;;;;2075017;28;20117;-91
2021/12/25 02:27:21;;;;;;;25.85;18.55;;;2.90;96.30;;;;;;2106657;28;20040;-91
2021/12/25 02:28:23;;;;;;;25.70;19.10;;;2.90;96.30;;;;;;2089870;28;20033;-92
2021/12/25 02:29:24;;;;;;;25.73;18.75;;;2.90;96.30;;;;;;2074052;28;20034;-91
2021/12/25 02:30:25;;;;;;;24.45;18.13;;;2.80;96.20;;;;;;2082370;28;20030;-92
2021/12/25 02:31:26;;;;;;;25.42;18.83;;;2.80;96.30;;;;;;2098860;28;20037;-92
2021/12/25 02:32:27;;;;;;;26.98;18.38;;;2.80;96.20;;;;;;2097878;28;20376;-91
2021/12/25 02:33:29;;;;;;;26.67;18.70;;;2.80;96.20;;;;;;2090572;28;20049;-91
2021/12/25 02:34:29;;;;;;;23.88;17.10;;;2.80;96.20;;;;;;2089012;28;20095;-92
2021/12/25 02:35:30;;;;;;;23.60;17.35;;;2.80;96.30;;;;;;2084076;28;20128;-92
2021/12/25 02:36:31;;;;;;;23.83;17.23;;;2.80;96.20;;;;;;2083530;28;20029;-91
2021/12/25 02:37:32;;;;;;;24.98;18.13;;;2.80;96.20;;;;;;2084681;28;20491;-91
2021/12/25 02:38:33;;;;;;;23.48;17.23;;;2.80;96.20;;;;;;2080275;28;20397;-91
2021/12/25 02:39:35;;;;;;;24.02;18.15;;;2.80;96.50;;;;;;2098059;28;20037;-91
2021/12/25 02:40:35;;;;;;;25.45;18.25;;;2.80;96.20;;;;;;2108018;28;20032;-90
2021/12/25 02:41:36;;;;;;;26.85;18.77;;;2.80;96.20;;;;;;2106182;28;20072;-91
2021/12/25 02:42:37;;;;;;;25.35;18.08;;;2.80;96.10;;;;;;2100145;28;20036;-90
2021/12/25 02:43:38;;;;;;;23.38;17.30;;;2.80;96.20;;;;;;2099597;28;20097;-92
2021/12/25 02:44:39;;;;;;;25.17;18.02;;;2.80;96.20;;;;;;2089958;28;20032;-91
2021/12/25 02:45:40;;;;;;;25.98;18.45;;;2.80;96.20;;;;;;2094534;28;20046;-91
2021/12/25 02:46:41;;;;;;;25.73;18.48;;;2.80;96.40;;;;;;2106626;28;20046;-91
2021/12/25 02:47:44;;;;;;;24.60;17.95;;;2.80;96.20;;;;;;2091406;28;20487;-91
2021/12/25 02:48:45;;;;;;;25.08;17.23;;;2.80;96.10;;;;;;2101333;28;20032;-91
2021/12/25 02:49:50;;;;;;;25.77;17.73;;;2.80;96.20;;;;;;2090236;28;20090;-91
2021/12/25 02:50:51;;;;;;;24.80;17.27;;;2.80;96.20;;;;;;2082759;28;20038;-91
2021/12/25 02:51:52;;;;;;;25.13;18.30;;;2.80;96.10;;;;;;2082331;28;20029;-92
2021/12/25 02:52:54;;;;;;;24.95;18.63;;;2.80;96.10;;;;;;2090597;28;20037;-91
2021/12/25 02:53:55;;;;;;;26.27;18.33;;;2.80;96.10;;;;;;2082127;28;20041;-92
2021/12/25 02:54:55;;;;;;;25.73;18.02;;;2.80;96.10;;;;;;2073402;28;20042;-91
2021/12/25 02:55:56;;;;;;;25.30;17.80;;;2.80;96.10;;;;;;2097358;28;20155;-91
2021/12/25 02:56:57;;;;;;;25.00;18.23;;;2.70;96.10;;;;;;2095497;28;20041;-91
2021/12/25 02:57:58;;;;;;;25.13;17.42;;;2.70;96.10;;;;;;2082253;28;20039;-91
2021/12/25 02:58:58;;;;;;;25.80;17.15;;;2.80;96.10;;;;;;2076842;28;20470;-89
2021/12/25 02:59:59;;;;;;;23.60;17.10;;;2.80;96.10;;;;;;2070013;28;20034;-91
2021/12/25 03:01:05;;;;;;;26.20;17.42;;;2.80;96.10;;;;;;2073998;28;20126;-91
2021/12/25 03:02:16;;;;;;;25.27;17.25;;;2.70;96.10;;;;;;2089964;28;20021;-91
2021/12/25 03:03:17;;;;;;;26.30;18.45;;;2.80;96.10;;;;;;2097737;28;20502;-91
2021/12/25 03:04:18;;;;;;;23.52;16.88;;;2.70;96.10;;;;;;2090148;28;20115;-91
2021/12/25 03:05:19;;;;;;;23.92;16.98;;;2.70;96.10;;;;;;2081391;28;20082;-92
2021/12/25 03:06:20;;;;;;;24.02;17.20;;;2.70;96.10;;;;;;2081638;28;20514;-91
2021/12/25 03:07:21;;;;;;;22.75;16.35;;;2.70;96.10;;;;;;2097026;28;20507;-91
2021/12/25 03:08:22;;;;;;;25.33;16.65;;;2.70;96.10;;;;;;2082261;28;20075;-92
2021/12/25 03:09:22;;;;;;;24.77;17.00;;;2.70;96.10;;;;;;2084834;28;20045;-88
2021/12/25 03:10:23;;;;;;;23.88;17.33;;;2.70;96.10;;;;;;2086053;28;20069;-88
2021/12/25 03:11:24;;;;;;;25.98;17.67;;;2.70;96.10;;;;;;2095067;28;20557;-88
2021/12/25 03:12:35;;;;;;;28.25;18.65;;;2.70;96.10;;;;;;2103065;28;20100;-88
2021/12/25 03:13:44;;;;;;;25.58;17.52;;;2.70;96.10;;;;;;2088872;28;20068;-88
2021/12/25 03:16:07;;;;;;;25.02;17.13;;;2.70;96.10;;;;;;2101347;28;20043;-91
2021/12/25 03:17:07;;;;;;;27.48;18.05;;;2.70;96.10;;;;;;2093056;28;20048;-92
2021/12/25 03:18:08;;;;;;;27.85;17.85;;;2.70;96.10;;;;;;2098773;28;20402;-91
2021/12/25 03:19:17;;;;;;;25.23;17.73;;;2.70;96.10;;;;;;2089194;28;20044;-91
2021/12/25 03:20:18;;;;;;;25.92;17.65;;;2.70;96.10;;;;;;2074713;28;20034;-91
2021/12/25 03:21:19;;;;;;;28.25;18.27;;;2.60;96.10;;;;;;2074456;28;20030;-91
2021/12/25 03:22:19;;;;;;;24.65;17.02;;;2.70;96.10;;;;;;2084974;28;20025;-92
2021/12/25 03:23:23;;;;;;;26.77;17.77;;;2.60;96.00;;;;;;2081858;28;20038;-91
2021/12/25 03:24:25;;;;;;;27.20;17.65;;;2.60;96.00;;;;;;2082499;28;20503;-91
2021/12/25 03:25:25;;;;;;;26.40;17.23;;;2.60;96.00;;;;;;2081211;28;20048;-91
2021/12/25 03:26:26;;;;;;;24.30;17.30;;;2.60;96.00;;;;;;2090374;28;20541;-91
2021/12/25 03:27:27;;;;;;;29.23;18.45;;;2.60;96.00;;;;;;2089010;28;20506;-91
2021/12/25 03:28:32;;;;;;;25.70;17.45;;;2.60;96.00;;;;;;2081848;28;20458;-90
2021/12/25 03:29:35;;;;;;;25.77;17.02;;;2.60;96.10;;;;;;2102535;28;20142;-89
2021/12/25 03:30:39;;;;;;;25.45;16.80;;;2.60;96.00;;;;;;2080606;28;20049;-92
2021/12/25 03:31:40;;;;;;;25.77;17.00;;;2.60;96.10;;;;;;2083374;28;20034;-91
2021/12/25 03:32:40;;;;;;;25.60;16.38;;;2.60;96.10;;;;;;2093901;28;20045;-92
2021/12/25 03:33:43;;;;;;;24.55;16.20;;;2.50;96.10;;;;;;2098844;28;20086;-91
2021/12/25 03:34:44;;;;;;;27.27;16.77;;;2.50;96.10;;;;;;2094834;28;20040;-91
2021/12/25 03:35:45;;;;;;;29.23;17.70;;;2.50;96.10;;;;;;2097385;28;20036;-92
2021/12/25 03:36:46;;;;;;;26.25;17.33;;;2.50;96.00;;;;;;2098171;28;20040;-92
2021/12/25 03:37:46;;;;;;;26.23;16.67;;;2.50;96.00;;;;;;2098510;28;20044;-91
2021/12/25 03:38:48;;;;;;;25.70;16.65;;;2.50;96.10;;;;;;2097503;28;20098;-91
2021/12/25 03:39:48;;;;;;;24.08;15.98;;;2.50;96.10;;;;;;2098124;28;20032;-91
2021/12/25 03:40:51;;;;;;;28.35;17.85;;;2.50;96.10;;;;;;2081944;28;20148;-92
2021/12/25 03:41:52;;;;;;;25.85;16.92;;;2.50;96.00;;;;;;2074082;28;20041;-91
2021/12/25 03:42:53;;;;;;;25.17;16.75;;;2.50;96.00;;;;;;2073675;28;20534;-91
2021/12/25 03:43:53;;;;;;;23.58;15.85;;;2.50;96.00;;;;;;2081830;28;20128;-92
2021/12/25 03:44:54;;;;;;;20.88;15.05;;;2.40;96.00;;;;;;2094991;28;20036;-92
2021/12/25 03:45:55;;;;;;;24.70;16.27;;;2.40;96.00;;;;;;2098929;28;20047;-91
2021/12/25 03:47:01;;;;;;;25.08;16.30;;;2.40;96.00;;;;;;2096709;28;20080;-91
2021/12/25 03:48:09;;;;;;;24.42;16.38;;;2.40;96.00;;;;;;2074355;28;20044;-91
2021/12/25 03:57:49;;;;;;;23.25;14.60;;;2.20;95.90;;;;;;2090583;28;20069;-91
2021/12/25 03:58:50;;;;;;;20.77;13.32;;;2.30;96.00;;;;;;2092817;28;20082;-91
2021/12/25 04:00:04;;;;;;;21.67;13.65;;;2.20;96.00;;;;;;2098286;28;20105;-91
2021/12/25 04:02:33;;;;;;;20.63;13.50;;;2.20;95.90;;;;;;2091435;28;20537;-91
2021/12/25 04:04:12;;;;;;;21.33;13.57;;;2.20;95.90;;;;;;2093231;28;20051;-91
2021/12/25 04:05:03;;;;;;;18.30;11.75;;;2.20;95.90;;;;;;2093340;28;20040;-91
2021/12/25 04:06:08;;;;;;;19.02;12.90;;;2.20;95.90;;;;;;2092597;28;20037;-91
2021/12/25 04:07:30;;;;;;;19.85;13.15;;;2.20;95.90;;;;;;2097542;28;20052;-92
2021/12/25 04:08:31;;;;;;;19.75;12.85;;;2.20;95.90;;;;;;2098540;28;20109;-91
2021/12/25 04:09:34;;;;;;;19.20;13.07;;;2.20;95.90;;;;;;2098434;28;20123;-91
2021/12/25 04:10:40;;;;;;;20.00;12.98;;;2.20;95.90;;;;;;2093034;28;20036;-91
2021/12/25 04:11:43;;;;;;;19.92;13.93;;;2.10;95.80;;;;;;2087651;28;20022;-91
2021/12/25 04:12:44;;;;;;;19.75;13.45;;;2.10;96.00;;;;;;2089298;28;20042;-91
2021/12/25 04:13:44;;;;;;;19.90;13.40;;;2.10;95.80;;;;;;2095747;28;20051;-92
2021/12/25 04:14:45;;;;;;;18.05;12.25;;;2.00;95.80;;;;;;2097948;28;20507;-91
2021/12/25 04:15:46;;;;;;;20.23;12.73;;;2.10;95.80;;;;;;2093719;28;20116;-91
2021/12/25 04:16:47;;;;;;;18.85;12.30;;;2.10;95.90;;;;;;2093306;28;20032;-92
2021/12/25 04:17:48;;;;;;;19.10;11.60;;;2.10;95.90;;;;;;2089262;28;20040;-91
2021/12/25 04:18:49;;;;;;;15.77;11.80;;;2.10;95.90;;;;;;2090190;28;20041;-91
2021/12/25 04:19:50;;;;;;;19.35;12.35;;;2.10;95.90;;;;;;2089368;28;20033;-92
2021/12/25 04:20:50;;;;;;;17.58;12.18;;;2.10;95.90;;;;;;2081102;28;20037;-91
2021/12/25 04:21:59;;;;;;;17.23;11.18;;;2.10;95.90;;;;;;2081536;28;20042;-91
2021/12/25 04:23:05;;;;;;;18.80;12.20;;;2.10;95.90;;;;;;2090322;28;20075;-93
2021/12/25 04:24:06;;;;;;;16.35;11.23;;;2.00;95.80;;;;;;2090826;28;20050;-91
2021/12/25 04:25:06;;;;;;;15.57;11.55;;;2.00;95.80;;;;;;2092721;28;20067;-92
2021/12/25 04:26:08;;;;;;;17.25;11.27;;;2.00;95.80;;;;;;2082171;28;20146;-92
2021/12/25 04:27:13;;;;;;;15.43;10.85;;;2.00;95.80;;;;;;2085585;28;20076;-91
2021/12/25 04:28:20;;;;;;;16.25;10.77;;;2.00;95.80;;;;;;2096537;28;20055;-92
2021/12/25 04:32:34;;;;;;;13.73;10.00;;;2.00;95.80;;;;;;2090145;28;20122;-92
2021/12/25 05:05:11;;;;;;;9.05;6.05;;;1.60;95.50;;;;;;2080515;28;20041;-91
2021/12/25 05:06:11;;;;;;;8.57;6.10;;;1.60;95.50;;;;;;2085589;28;20034;-90
2021/12/25 05:07:13;;;;;;;8.35;5.75;;;1.60;95.50;;;;;;2091958;28;20022;-88
2021/12/25 05:08:13;;;;;;;10.60;6.38;;;1.60;95.50;;;;;;2100240;28;20096;-90
2021/12/25 05:09:15;;;;;;;8.63;5.85;;;1.60;95.60;;;;;;2091731;28;20024;-92
2021/12/25 05:10:16;;;;;;;8.95;5.22;;;1.50;95.50;;;;;;2095987;28;20070;-89
2021/12/25 05:11:17;;;;;;;8.32;5.50;;;1.60;95.60;;;;;;2088822;28;20037;-91
2021/12/25 05:12:18;;;;;;;7.53;4.95;;;1.50;95.60;;;;;;2096117;28;20033;-90
2021/12/25 05:13:18;;;;;;;9.25;5.80;;;1.50;95.60;;;;;;2096921;28;20040;-90
2021/12/25 05:14:19;;;;;;;8.82;5.35;;;1.50;95.60;;;;;;2092519;28;20522;-92
2021/12/25 05:15:19;;;;;;;7.32;5.10;;;1.50;95.50;;;;;;2105611;28;20028;-90
2021/12/25 05:16:21;;;;;;;7.78;5.18;;;1.50;95.50;;;;;;2089179;28;20044;-90
2021/12/25 05:17:22;;;;;;;8.30;5.32;;;1.50;95.60;;;;;;2088942;28;20127;-90
2021/12/25 05:18:22;;;;;;;7.55;4.70;;;1.50;95.60;;;;;;2089588;28;20033;-91
2021/12/25 05:19:24;;;;;;;7.22;4.35;;;1.50;95.50;;;;;;2089726;28;20535;-90
2021/12/25 05:20:25;;;;;;;8.45;4.72;;;1.50;95.50;;;;;;2095882;28;20059;-90
2021/12/25 05:21:26;;;;;;;7.72;4.93;;;1.50;95.50;;;;;;2098100;28;20098;-91
2021/12/25 05:22:27;;;;;;;7.30;4.38;;;1.50;95.50;;;;;;2113029;28;20549;-91
2021/12/25 05:23:28;;;;;;;8.30;4.18;;;1.40;95.40;;;;;;2088872;28;20052;-91
2021/12/25 05:24:29;;;;;;;8.25;4.32;;;1.40;95.40;;;;;;2080451;28;20511;-90
2021/12/25 05:25:31;;;;;;;7.43;4.05;;;1.40;95.40;;;;;;2097801;28;20048;-91
2021/12/25 05:26:33;;;;;;;5.85;3.60;;;1.40;95.30;;;;;;2090565;28;20068;-91
2021/12/25 05:27:34;;;;;;;6.25;4.10;;;1.30;95.20;;;;;;2073615;28;20038;-91
2021/12/25 05:28:46;;;;;;;5.90;3.63;;;1.30;95.30;;;;;;2073283;28;20046;-91
2021/12/25 05:29:46;;;;;;;6.00;3.60;;;1.30;95.30;;;;;;2099210;28;20128;-91
2021/12/25 05:30:47;;;;;;;6.10;3.80;;;1.30;95.30;;;;;;2098141;28;20032;-92
2021/12/25 05:31:48;;;;;;;4.85;3.00;;;1.30;95.30;;;;;;2079863;28;20499;-92
2021/12/25 05:32:48;;;;;;;5.93;3.05;;;1.20;95.30;;;;;;2073133;28;20084;-92
2021/12/25 05:33:49;;;;;;;4.32;2.80;;;1.30;95.30;;;;;;2082472;28;20043;-92
2021/12/25 05:34:50;;;;;;;5.30;3.30;;;1.20;95.30;;;;;;2091241;28;20029;-91
2021/12/25 05:35:50;;;;;;;6.50;3.08;;;1.20;95.30;;;;;;2099011;28;20037;-91
2021/12/25 05:36:52;;;;;;;7.25;3.40;;;1.20;95.30;;;;;;2082618;28;20549;-92
2021/12/25 05:37:57;;;;;;;4.80;2.92;;;1.20;95.20;;;;;;2083113;28;20037;-92
2021/12/25 05:39:00;;;;;;;4.80;2.70;;;1.20;95.10;;;;;;2091098;28;20056;-92
2021/12/25 05:40:02;;;;;;;7.63;2.92;;;1.10;95.00;;;;;;2099399;28;20032;-91
2021/12/25 05:41:03;;;;;;;6.45;2.97;;;1.10;95.00;;;;;;2085897;28;20075;-92
2021/12/25 05:42:04;;;;;;;4.95;2.75;;;1.10;95.00;;;;;;2087162;28;20033;-92
2021/12/25 05:43:05;;;;;;;5.45;2.80;;;1.00;95.00;;;;;;2093203;28;20037;-92
2021/12/25 05:44:06;;;;;;;5.20;2.67;;;1.00;95.00;;;;;;2091865;28;20037;-92
2021/12/25 05:45:07;;;;;;;6.35;2.80;;;1.00;95.00;;;;;;2083363;28;20033;-92
2021/12/25 05:46:08;;;;;;;4.65;2.53;;;1.00;95.00;;;;;;2091728;28;20041;-91
2021/12/25 05:47:08;;;;;;;5.93;2.72;;;1.00;95.00;;;;;;2083360;28;20287;-91
2021/12/25 05:48:10;;;;;;;5.30;2.20;;;1.00;95.00;;;;;;2099045;28;20466;-91
2021/12/25 05:49:10;;;;;;;3.55;2.25;;;0.90;95.00;;;;;;2107686;28;20076;-91
2021/12/25 05:50:11;;;;;;;4.82;2.40;;;0.90;95.20;;;;;;2107749;28;20035;-92
2021/12/25 05:51:15;;;;;;;6.80;2.80;;;0.90;95.00;;;;;;2099264;28;20024;-92
2021/12/25 05:52:16;;;;;;;4.43;2.40;;;0.90;95.00;;;;;;2098456;28;20067;-92
2021/12/25 05:53:16;;;;;;;5.28;2.40;;;0.90;94.90;;;;;;2099495;28;20058;-92
2021/12/25 05:54:17;;;;;;;5.40;2.20;;;0.80;94.90;;;;;;2099576;28;20064;-92
2021/12/25 05:55:18;;;;;;;3.88;2.15;;;0.80;94.90;;;;;;2099626;28;20028;-92
2021/12/25 05:56:19;;;;;;;3.90;2.30;;;0.80;94.90;;;;;;2096316;28;20053;-92
2021/12/25 05:57:19;;;;;;;5.05;2.72;;;0.80;94.80;;;;;;2090711;28;20040;-92
2021/12/25 05:58:20;;;;;;;5.70;2.60;;;0.80;94.80;;;;;;2083280;28;20037;-92
2021/12/25 05:59:21;;;;;;;4.20;2.40;;;0.70;94.70;;;;;;2091452;28;20037;-92
2021/12/25 06:00:23;;;;;;;4.85;2.50;;;0.70;94.70;;;;;;2092431;28;20092;-92
2021/12/25 06:01:24;;;;;;;6.10;2.63;;;0.70;94.70;;;;;;2097222;28;20070;-92
2021/12/25 06:02:24;;;;;;;3.65;2.45;;;0.70;94.70;;;;;;2091064;28;20483;-91
2021/12/25 06:03:25;;;;;;;5.93;2.63;;;0.70;94.70;;;;;;2099106;28;20036;-92
2021/12/25 06:04:26;;;;;;;3.85;2.45;;;0.70;94.80;;;;;;2098645;28;20029;-92
2021/12/25 06:05:27;;;;;;;3.80;2.35;;;0.70;94.80;;;;;;2090739;28;20102;-92
2021/12/25 06:06:27;;;;;;;3.60;2.40;;;0.70;94.80;;;;;;2090948;28;20037;-91
2021/12/25 06:07:28;;;;;;;3.00;2.17;;;0.70;94.80;;;;;;2099611;28;20033;-92
2021/12/25 06:08:29;;;;;;;5.20;2.47;;;0.70;94.80;;;;;;2099577;28;20052;-92
2021/12/25 06:09:29;;;;;;;5.72;2.35;;;0.70;94.80;;;;;;2090009;28;20126;-91
2021/12/25 06:10:30;;;;;;;4.55;2.38;;;0.70;94.80;;;;;;2074476;28;20038;-91
2021/12/25 06:11:31;;;;;;;4.97;2.45;;;0.70;94.80;;;;;;2081611;28;20477;-92
2021/12/25 06:12:33;;;;;;;4.35;2.30;;;0.70;94.80;;;;;;2088404;28;20471;-92
2021/12/25 06:13:43;;;;;;;4.22;2.55;;;0.70;94.80;;;;;;2099014;28;20136;-91
2021/12/25 06:14:45;;;;;;;4.25;2.35;;;0.70;94.80;;;;;;2098488;28;20110;-91
2021/12/25 06:15:45;;;;;;;3.22;2.10;;;0.70;94.80;;;;;;2099021;28;20085;-92
2021/12/25 06:16:48;;;;;;;3.65;2.20;;;0.70;94.80;;;;;;2083711;28;20659;-92
2021/12/25 06:17:49;;;;;;;5.93;2.40;;;0.70;94.80;;;;;;2096204;28;20123;-91
2021/12/25 06:18:49;;;;;;;3.75;2.28;;;0.70;94.80;;;;;;2107410;28;20450;-91
2021/12/25 06:19:50;;;;;;;5.10;2.35;;;0.70;94.80;;;;;;2090796;28;20045;-91
2021/12/25 06:20:51;;;;;;;3.97;2.35;;;0.70;94.70;;;;;;2099060;28;20036;-90
2021/12/25 06:21:51;;;;;;;5.78;2.70;;;0.70;94.70;;;;;;2105101;28;20117;-91
2021/12/25 06:22:52;;;;;;;3.65;2.33;;;0.70;94.70;;;;;;2090184;28;20045;-91
2021/12/25 06:23:53;;;;;;;3.30;2.13;;;0.70;94.60;;;;;;2098413;28;20075;-91
2021/12/25 06:24:53;;;;;;;6.63;2.63;;;0.80;94.70;;;;;;2087309;28;20055;-91
2021/12/25 06:25:54;;;;;;;3.13;2.20;;;0.70;94.70;;;;;;2090623;28;20059;-90
2021/12/25 06:26:55;;;;;;;4.97;2.40;;;0.70;94.70;;;;;;2091606;28;20495;-91
2021/12/25 06:27:56;;;;;;;4.00;2.15;;;0.70;94.70;;;;;;2082586;28;20124;-91
2021/12/25 06:28:57;;;;;;;4.15;2.53;;;0.70;94.70;;;;;;2090579;28;20483;-91
2021/12/25 06:29:58;;;;;;;4.57;2.65;;;0.70;94.70;;;;;;2098684;28;20024;-91
2021/12/25 06:30:59;;;;;;;4.13;2.40;;;0.70;94.70;;;;;;2099066;28;20032;-90
2021/12/25 06:31:59;;;;;;;4.35;2.30;;;0.70;94.70;;;;;;2091764;28;20029;-91
2021/12/25 06:33:00;;;;;;;4.80;3.00;;;0.70;94.70;;;;;;2081342;28;20060;-91
2021/12/25 06:34:02;;;;;;;4.13;2.42;;;0.70;94.70;;;;;;2106687;28;20048;-91
2021/12/25 06:35:03;;;;;;;4.43;2.83;;;0.70;94.60;;;;;;2118128;28;20046;-91
2021/12/25 06:36:04;;;;;;;5.28;2.88;;;0.70;94.60;;;;;;2099039;28;20462;-91
2021/12/25 06:37:06;;;;;;;4.75;2.53;;;0.70;94.60;;;;;;2090415;28;20041;-91
2021/12/25 06:38:07;;;;;;;5.28;2.97;;;0.70;94.60;;;;;;2085828;28;20028;-90
2021/12/25 06:39:13;;;;;;;4.47;2.95;;;0.70;94.90;;;;;;2090470;28;20079;-90
2021/12/25 06:40:18;;;;;;;4.32;2.90;;;0.60;94.60;;;;;;2090611;28;20032;-91